Hay River Airport
CYHY : now visible

Airfield :











YOU CAN JOIN US ON...

 
LOGIN :

Register | Disclaimer

   EN    FR    IT 

 









Legend :    VFR   Marginal VFR   IFR   Intensive IFR   Very Intensive IFR
Visi :
Ceiling :
>= 8 km
>= 3000ft
5 to 8 km
1000 to 3000 ft
1500m to 5 km
500 to 1000 ft
800 to 1500m
200 to 500 ft
< 800m
< 200 ft
Symbols :   Thunderstorms  Fog  Heavy snow  Heavy precipitations  Wind > 20 kt







- Airport Elevation : 543 ft
- IATA code : YHY


CYHY - Hay River

CURRENT METAR :
  • 211700Z 18011G16KT 15SM FEW080 BKN230 14/07 A2943 RMK AC2CI5 SLP973 DENSITY ALT 1100FT

EXPIRED METARs :
  • 211600Z 18013KT 15SM SCT080 BKN230 12/07 A2946 RMK AC3CI3 SLP986 DENSITY ALT 900FT
  • 211500Z 15012KT 15SM BKN084 BKN230 10/07 A2948 RMK AC5CI2 SLP990 DENSITY ALT 600FT

TAF TAF CYHY
Valid from the 21 at 12:00 until the 22 at 00:00 UTC


211139Z 2112/2124 16008KT P6SM SCT150 BKN200
FM211500 18008KT P6SM BKN140
FM211800 18012KT P6SM SCT040 BKN080
FM212000 20012KT P6SM SCT080 RMK NXT FCST BY 211800Z
No reported NOTAMs for that airfield.



MET'MAP, your aeronautical weather chart ! - Copyright ORBIFLY December 2007 - Disclaimer

ORBIFLY MET'MAP TEAM :

Programming & Development : Alexandra Zaïnal
Concept & Development : Baudouin d'Aumeries
Co-Development & Prog : Marc-Olivier Méhu
Technical & hardware support : Manuel Goepfert

Contact : metmap@orbifly.com




SOURCES & CREDITS :

   NOAA       Earth
Advisory